Flight Track Log - Related Links

Times and Time Zones

All times are in EDT time to prevent confusion due to time zone crossing. See the N214GF flight status page for this flight to view local times or setup timezone preferences in your user account.

Time Position Orientation Groundspeed Altitude Reporting Facility
EDT Latitude Longitude Course Direction KTS MPH feet Rate Location/Type
Wed 09:19:21 PM 43.0869 -89.2339 142° Southeast 148 170 3,900  Level Chicago Center
Wed 09:20:23 PM 43.0533 -89.1978 142° Southeast 151 174 4,700 774 Climbing Chicago Center
Wed 09:21:25 PM 43.0194 -89.1639 144° Southeast 151 174 5,500 774 Climbing Chicago Center
Wed 09:22:00 PM 42.9149 -89.0815 144° Southeast  Level FlightAware Approximate
Wed 09:22:27 PM 42.9867 -89.1300 143° Southeast 150 173 6,300  Level Chicago Center
Wed 09:23:00 PM 42.8765 -89.0431 144° Southeast  Level FlightAware Approximate
Wed 09:23:29 PM 42.9461 -89.0867 142° Southeast 157 181 7,000  Level Chicago Center
Wed 09:24:31 PM 42.9058 -89.0450 143° Southeast 177 204 7,000  Level Chicago Center
Wed 09:25:32 PM 42.8633 -89.0011 143° Southeast 190 219 7,000  Level Chicago Center
Wed 09:26:35 PM 42.8203 -88.9572 143° Southeast 193 222 7,000  Level Chicago Center
Wed 09:27:36 PM 42.7792 -88.9150 143° Southeast 188 216 7,000  Level Chicago Center
Wed 09:28:38 PM 42.7375 -88.8700 142° Southeast 191 220 7,000  Level Chicago Center
Wed 09:29:40 PM 42.6864 -88.8186 144° Southeast 196 226 7,000  Level Chicago Center
Wed 09:30:42 PM 42.6428 -88.7711 141° Southeast 200 230 7,000 -146 Level Chicago Center
Wed 09:31:43 PM 42.5989 -88.7272 144° Southeast 197 227 6,700 -439 Descending Chicago Center
Wed 09:32:45 PM 42.5522 -88.6817 144° Southeast 204 235 6,100 -532 Descending Chicago Center
Wed 09:33:47 PM 42.5072 -88.6322 141° Southeast 206 237 5,600 -488 Descending Chicago Center
Wed 09:34:48 PM 42.4631 -88.5883 144° Southeast 201 231 5,100 -293 Descending Chicago Center
Wed 09:35:50 PM 42.4153 -88.5417 144° Southeast 186 214 5,000 -48 Descending Chicago Center
Wed 09:36:52 PM 42.3772 -88.5025 143° Southeast 174 200 5,000 -146 Level Chicago Center
Wed 09:37:53 PM 42.3564 -88.4467 117° Southeast 168 193 4,700 -390 Descending Chicago Center
Wed 09:38:55 PM 42.3389 -88.3767 109° East 186 214 4,200 -341 Descending Chicago Center
Wed 09:39:56 PM 42.3236 -88.3161 109° East 187 215 4,000 -98 Descending Chicago Center
Wed 09:40:58 PM 42.3061 -88.2392 107° East 181 208 4,000 -146 Level Chicago Center
Wed 09:41:59 PM 42.2914 -88.1808 109° East 172 198 3,700 -341 Descending Chicago Center
Wed 09:43:01 PM 42.2756 -88.1175 109° East 175 201 3,300 -390 Descending Chicago Center
Wed 09:44:02 PM 42.2583 -88.0542 110° East 180 207 2,900 -390 Descending Chicago Center
Wed 09:45:04 PM 42.2422 -87.9906 109° East 180 207 2,500 -244 Descending Chicago Center
Wed 09:46:05 PM 42.2086 -87.9531 140° Southeast 173 199 2,400 -393 Descending Chicago Center
Wed 09:47:06 PM 42.1689 -87.9308 157° South 169 194 1,700 -634 Descending Chicago Center
Wed 09:48:08 PM 42.1394 -87.9156 159° South 147 169 1,100 -581 Descending Chicago Center
Wed 09:50:00 PM 42.1143 -87.9015 124° Southeast  Level Estimated

Login

Don't have an account? Register now (free) for customized features, flight alerts, and more!